Time;durP1;ratioP1;P1;durP2;ratioP2;P2;SDS_P1;SDS_P2;PMS_P1;PMS_P2;Temp;Humidity;BMP_temperature;BMP_pressure;BME280_temperature;BME280_humidity;BME280_pressure;Samples;Min_cycle;Max_cycle;Signal;HPM_P1;HPM_P2
2023/03/16 00:01:38;;;;;;;9.50;7.15;;;;;;;;;;5035262;28;20024;-76
2023/03/16 00:04:03;;;;;;;9.68;6.97;;;;;;;;;;5051080;28;20031;-75
2023/03/16 00:06:29;;;;;;;10.43;7.78;;;;;;;;;;5033962;28;20064;-76
2023/03/16 00:08:57;;;;;;;13.23;7.53;;;;;;;;;;5034345;28;20539;-76
2023/03/16 00:11:26;;;;;;;11.00;7.13;;;;;;;;;;5033655;28;20044;-76
2023/03/16 00:13:52;;;;;;;13.13;7.15;;;;;;;;;;5034416;28;20033;-75
2023/03/16 00:16:17;;;;;;;15.75;7.75;;;;;;;;;;5033998;28;20098;-76
2023/03/16 00:18:43;;;;;;;12.75;8.07;;;;;;;;;;5022561;28;20039;-76
2023/03/16 00:21:08;;;;;;;9.57;7.30;;;;;;;;;;5034364;28;20061;-76
2023/03/16 00:23:37;;;;;;;13.73;8.07;;;;;;;;;;5050827;28;20438;-76
2023/03/16 00:26:06;;;;;;;12.85;7.55;;;;;;;;;;5050421;28;20060;-76
2023/03/16 00:28:34;;;;;;;10.27;7.65;;;;;;;;;;5050684;28;20379;-76
2023/03/16 00:31:02;;;;;;;12.35;7.55;;;;;;;;;;5051504;28;20033;-77
2023/03/16 00:33:28;;;;;;;9.13;7.15;;;;;;;;;;5017515;28;20052;-76
2023/03/16 00:36:01;;;;;;;;;;;;;;;;;;5014460;28;20128;-76
2023/03/16 00:38:27;;;;;;;11.73;7.90;;;;;;;;;;5031809;28;19919;-76
2023/03/16 00:40:52;;;;;;;9.73;7.40;;;;;;;;;;5034086;28;20037;-76
2023/03/16 00:43:18;;;;;;;8.63;7.53;;;;;;;;;;5033855;28;20863;-75
2023/03/16 00:45:43;;;;;;;12.63;7.75;;;;;;;;;;5014332;28;20491;-76
2023/03/16 00:48:10;;;;;;;10.98;7.68;;;;;;;;;;5015514;28;20128;-76
2023/03/16 00:50:35;;;;;;;9.57;7.22;;;;;;;;;;5033231;28;20025;-77
2023/03/16 00:53:01;;;;;;;12.20;7.57;;;;;;;;;;5051251;28;20033;-76
2023/03/16 00:55:27;;;;;;;12.32;7.35;;;;;;;;;;5051256;28;20069;-76
2023/03/16 00:57:53;;;;;;;;;;;;;;;;;;5034355;28;20051;-77
2023/03/16 01:00:20;;;;;;;12.20;6.93;;;;;;;;;;5051610;28;20007;-76
2023/03/16 01:02:45;;;;;;;13.95;8.25;;;;;;;;;;5033673;28;20029;-76
2023/03/16 01:05:11;;;;;;;18.33;8.32;;;;;;;;;;5017187;28;20017;-76
2023/03/16 01:07:37;;;;;;;;;;;;;;;;;;5014584;28;20033;-76
2023/03/16 01:10:02;;;;;;;10.25;7.90;;;;;;;;;;5043443;28;19908;-76
2023/03/16 01:12:28;;;;;;;12.05;7.78;;;;;;;;;;5033676;28;20515;-75
2023/03/16 01:14:54;;;;;;;13.45;7.88;;;;;;;;;;5017074;28;20040;-75
2023/03/16 01:17:21;;;;;;;13.90;8.70;;;;;;;;;;5016979;28;20033;-76
2023/03/16 01:19:48;;;;;;;14.90;8.93;;;;;;;;;;5033711;28;20434;-75
2023/03/16 01:22:14;;;;;;;;;;;;;;;;;;5033596;28;20025;-75
2023/03/16 01:24:40;;;;;;;15.70;8.73;;;;;;;;;;5033561;28;19908;-76
2023/03/16 01:27:05;;;;;;;11.25;9.05;;;;;;;;;;5017468;28;20037;-75
2023/03/16 01:29:31;;;;;;;14.85;8.77;;;;;;;;;;5017356;28;20080;-76
2023/03/16 01:31:57;;;;;;;10.60;8.13;;;;;;;;;;5000804;28;20830;-76
2023/03/16 01:34:23;;;;;;;11.63;8.95;;;;;;;;;;5000791;28;20021;-75
2023/03/16 01:36:49;;;;;;;10.70;8.88;;;;;;;;;;4997445;28;20044;-76
2023/03/16 01:39:22;;;;;;;10.48;8.25;;;;;;;;;;4995314;28;20040;-75
2023/03/16 01:41:48;;;;;;;14.60;9.05;;;;;;;;;;5016849;28;20443;-75
2023/03/16 01:44:15;;;;;;;14.43;9.02;;;;;;;;;;5033783;28;20021;-76
2023/03/16 01:46:43;;;;;;;12.20;8.70;;;;;;;;;;5018061;28;20499;-76
2023/03/16 01:49:11;;;;;;;13.70;8.40;;;;;;;;;;5033747;28;20055;-75
2023/03/16 01:51:42;;;;;;;11.20;8.32;;;;;;;;;;5033510;28;20392;-75
2023/03/16 01:54:20;;;;;;;16.02;8.63;;;;;;;;;;5017359;28;20045;-76
2023/03/16 01:56:46;;;;;;;10.25;8.23;;;;;;;;;;5041596;28;20052;-75
2023/03/16 01:59:13;;;;;;;13.77;8.52;;;;;;;;;;5070846;28;20053;-75
2023/03/16 02:01:39;;;;;;;14.52;9.13;;;;;;;;;;5039342;28;20041;-75
2023/03/16 02:04:07;;;;;;;13.60;8.80;;;;;;;;;;5056609;28;20047;-75
2023/03/16 02:06:32;;;;;;;16.42;8.68;;;;;;;;;;5056811;28;20080;-75
2023/03/16 02:08:58;;;;;;;13.07;8.70;;;;;;;;;;5056355;28;20059;-75
2023/03/16 02:11:23;;;;;;;12.60;8.70;;;;;;;;;;5036360;28;20033;-75
2023/03/16 02:13:57;;;;;;;13.02;8.90;;;;;;;;;;5036890;28;20052;-76
2023/03/16 02:16:23;;;;;;;16.30;9.20;;;;;;;;;;5056444;28;20046;-76
2023/03/16 02:18:49;;;;;;;14.10;8.90;;;;;;;;;;5056162;28;20111;-76
2023/03/16 02:21:18;;;;;;;15.25;9.30;;;;;;;;;;5040142;28;20123;-76
2023/03/16 02:23:44;;;;;;;16.70;9.48;;;;;;;;;;5039513;28;20040;-76
2023/03/16 02:26:28;;;;;;;14.20;9.18;;;;;;;;;;5040353;28;20039;-76
2023/03/16 02:29:12;;;;;;;13.45;9.25;;;;;;;;;;5056128;28;20439;-75
2023/03/16 02:31:38;;;;;;;15.82;9.57;;;;;;;;;;5039428;28;20025;-75
2023/03/16 02:34:05;;;;;;;16.23;9.50;;;;;;;;;;5056313;28;20082;-76
2023/03/16 02:36:31;;;;;;;16.33;9.73;;;;;;;;;;5056022;28;20036;-76
2023/03/16 02:38:56;;;;;;;13.52;9.10;;;;;;;;;;5040006;28;20052;-76
2023/03/16 02:41:22;;;;;;;15.88;9.82;;;;;;;;;;5055686;28;20071;-76
2023/03/16 02:44:00;;;;;;;18.90;9.45;;;;;;;;;;5055867;28;20028;-76
2023/03/16 02:46:34;;;;;;;14.02;9.15;;;;;;;;;;5039869;28;20040;-76
2023/03/16 02:49:02;;;;;;;11.75;9.43;;;;;;;;;;5055833;28;20487;-75
2023/03/16 02:51:28;;;;;;;13.90;9.63;;;;;;;;;;5039045;28;20107;-75
2023/03/16 02:53:53;;;;;;;14.13;8.82;;;;;;;;;;5055831;28;20131;-76
2023/03/16 02:56:19;;;;;;;;;;;;;;;;;;5055837;28;20082;-76
2023/03/16 02:58:45;;;;;;;15.00;9.80;;;;;;;;;;5056116;28;20648;-76
2023/03/16 03:01:15;;;;;;;19.35;10.18;;;;;;;;;;5039425;28;20028;-75
2023/03/16 03:03:41;;;;;;;13.77;11.07;;;;;;;;;;5055926;28;20084;-75
2023/03/16 03:06:06;;;;;;;17.13;11.15;;;;;;;;;;5073360;28;20059;-75
2023/03/16 03:08:34;;;;;;;21.20;11.50;;;;;;;;;;5055974;28;20032;-75
2023/03/16 03:11:00;;;;;;;15.27;11.23;;;;;;;;;;5038679;28;20663;-76
2023/03/16 03:13:26;;;;;;;16.52;10.70;;;;;;;;;;5054475;28;20090;-76
2023/03/16 03:15:51;;;;;;;13.60;10.27;;;;;;;;;;5055125;28;20025;-76
2023/03/16 03:18:20;;;;;;;18.73;10.43;;;;;;;;;;5055642;28;20090;-76
2023/03/16 03:20:45;;;;;;;16.17;10.55;;;;;;;;;;5073032;28;20364;-77
2023/03/16 03:23:11;;;;;;;18.13;10.50;;;;;;;;;;5055269;28;20037;-77
2023/03/16 03:25:36;;;;;;;15.05;10.23;;;;;;;;;;5073086;28;20021;-77
2023/03/16 03:28:04;;;;;;;17.80;10.35;;;;;;;;;;5038764;28;20399;-77
2023/03/16 03:30:30;;;;;;;21.90;10.43;;;;;;;;;;5038433;28;20395;-77
2023/03/16 03:32:55;;;;;;;16.85;9.80;;;;;;;;;;5073097;28;20028;-77
2023/03/16 03:35:21;;;;;;;16.80;10.18;;;;;;;;;;5054890;28;20032;-77
2023/03/16 03:37:46;;;;;;;18.90;9.80;;;;;;;;;;5055150;28;20509;-77
2023/03/16 03:40:14;;;;;;;15.13;10.10;;;;;;;;;;5054664;28;20032;-77
2023/03/16 03:42:42;;;;;;;16.67;10.77;;;;;;;;;;5038515;28;20041;-77
2023/03/16 03:45:08;;;;;;;17.98;10.82;;;;;;;;;;5072713;28;20028;-77
2023/03/16 03:47:34;;;;;;;16.20;10.35;;;;;;;;;;5054947;28;20151;-77
2023/03/16 03:50:01;;;;;;;19.83;10.73;;;;;;;;;;5058020;28;20115;-76
2023/03/16 03:52:27;;;;;;;18.02;11.13;;;;;;;;;;5063197;28;20040;-76
2023/03/16 03:54:53;;;;;;;17.27;9.98;;;;;;;;;;5044491;28;20052;-76
2023/03/16 03:57:19;;;;;;;15.25;11.07;;;;;;;;;;5072600;28;20410;-77
2023/03/16 03:59:44;;;;;;;19.25;12.00;;;;;;;;;;5072714;28;20127;-76
2023/03/16 04:02:22;;;;;;;28.52;13.10;;;;;;;;;;5063747;28;20114;-77
2023/03/16 04:04:53;;;;;;;20.45;11.13;;;;;;;;;;5072461;28;20055;-76
2023/03/16 04:07:18;;;;;;;26.30;11.57;;;;;;;;;;5054566;28;20040;-77
2023/03/16 04:09:45;;;;;;;15.90;12.40;;;;;;;;;;5054326;28;20060;-77
2023/03/16 04:12:21;;;;;;;20.33;12.07;;;;;;;;;;5053913;28;20738;-77
2023/03/16 04:14:47;;;;;;;;;;;;;;;;;;5054537;28;20278;-77
2023/03/16 04:17:12;;;;;;;16.63;11.93;;;;;;;;;;5050528;28;19915;-76
2023/03/16 04:19:38;;;;;;;16.50;11.38;;;;;;;;;;5037619;28;20044;-77
2023/03/16 04:22:08;;;;;;;19.60;11.35;;;;;;;;;;5037615;28;20028;-77
2023/03/16 04:24:34;;;;;;;19.10;10.60;;;;;;;;;;5033143;28;20094;-75
2023/03/16 04:27:01;;;;;;;18.08;10.95;;;;;;;;;;5037066;28;20032;-75
2023/03/16 04:29:27;;;;;;;24.48;11.43;;;;;;;;;;5037160;28;20082;-75
2023/03/16 04:31:55;;;;;;;20.48;10.63;;;;;;;;;;5049328;28;20027;-76
2023/03/16 04:34:24;;;;;;;13.88;9.55;;;;;;;;;;5035712;28;20031;-75
2023/03/16 04:36:53;;;;;;;19.63;10.50;;;;;;;;;;5035722;28;20121;-75
2023/03/16 04:39:20;;;;;;;18.70;10.70;;;;;;;;;;5045935;28;20119;-75
2023/03/16 04:41:46;;;;;;;15.88;10.45;;;;;;;;;;5035184;28;20062;-76
2023/03/16 04:44:17;;;;;;;15.90;10.23;;;;;;;;;;5050302;28;20051;-77
2023/03/16 04:46:43;;;;;;;19.20;10.50;;;;;;;;;;5046616;28;20123;-75
2023/03/16 04:49:10;;;;;;;15.63;9.88;;;;;;;;;;5051344;28;20115;-77
2023/03/16 04:51:36;;;;;;;16.13;9.90;;;;;;;;;;5037264;28;20029;-76
2023/03/16 04:54:14;;;;;;;18.88;9.93;;;;;;;;;;5035854;28;20020;-76
2023/03/16 04:56:42;;;;;;;16.45;11.25;;;;;;;;;;5053397;28;20121;-77
2023/03/16 04:59:17;;;;;;;22.17;11.13;;;;;;;;;;5049218;28;20031;-77
2023/03/16 05:02:00;;;;;;;13.98;9.95;;;;;;;;;;5039040;28;20025;-76
2023/03/16 05:04:26;;;;;;;18.38;10.57;;;;;;;;;;5036512;28;20032;-76
2023/03/16 05:06:52;;;;;;;18.83;11.20;;;;;;;;;;5035905;28;20040;-77
2023/03/16 05:09:24;;;;;;;18.05;10.10;;;;;;;;;;5053013;28;20483;-76
2023/03/16 05:11:50;;;;;;;22.25;11.82;;;;;;;;;;5036615;28;20098;-77
2023/03/16 05:14:16;;;;;;;25.13;11.57;;;;;;;;;;5052912;28;20017;-76
2023/03/16 05:16:54;;;;;;;18.20;11.27;;;;;;;;;;5052812;28;20040;-75
2023/03/16 05:19:21;;;;;;;18.73;11.30;;;;;;;;;;5053212;28;20132;-76
2023/03/16 05:21:47;;;;;;;17.95;12.35;;;;;;;;;;5039306;28;20052;-75
2023/03/16 05:24:12;;;;;;;20.30;13.35;;;;;;;;;;5035797;28;20075;-77
2023/03/16 05:26:38;;;;;;;20.85;13.20;;;;;;;;;;5052999;28;20017;-75
2023/03/16 05:29:08;;;;;;;17.35;12.60;;;;;;;;;;5028846;28;20127;-75
2023/03/16 05:31:35;;;;;;;21.02;14.15;;;;;;;;;;5019937;28;20107;-75
2023/03/16 05:34:06;;;;;;;22.63;13.80;;;;;;;;;;5053087;28;20079;-76
2023/03/16 05:36:34;;;;;;;19.55;12.65;;;;;;;;;;5054976;28;20067;-76
2023/03/16 05:39:07;;;;;;;26.40;14.00;;;;;;;;;;5040956;28;20032;-75
2023/03/16 05:41:40;;;;;;;26.60;14.25;;;;;;;;;;5056652;28;20039;-77
2023/03/16 05:44:32;;;;;;;28.80;19.80;;;;;;;;;;5070424;28;20056;-77
2023/03/16 05:47:06;;;;;;;25.05;14.55;;;;;;;;;;5041303;28;20742;-76
2023/03/16 05:49:35;;;;;;;21.25;13.75;;;;;;;;;;5052667;28;20036;-76
2023/03/16 05:52:04;;;;;;;19.52;14.45;;;;;;;;;;5056240;28;20120;-77
2023/03/16 05:54:32;;;;;;;22.77;14.32;;;;;;;;;;5056309;28;20056;-76
2023/03/16 05:56:58;;;;;;;22.85;14.60;;;;;;;;;;5067758;28;20087;-77
2023/03/16 05:59:24;;;;;;;22.15;14.15;;;;;;;;;;5048048;28;20047;-76
2023/03/16 06:01:53;;;;;;;21.58;13.68;;;;;;;;;;5049988;28;20047;-76
2023/03/16 06:04:20;;;;;;;17.60;12.30;;;;;;;;;;5067080;28;20032;-77
2023/03/16 06:06:47;;;;;;;22.90;12.48;;;;;;;;;;5050288;28;20024;-76
2023/03/16 06:09:19;;;;;;;19.42;13.18;;;;;;;;;;5030832;28;20032;-76
2023/03/16 06:11:45;;;;;;;17.13;13.00;;;;;;;;;;5003518;28;20480;-79
2023/03/16 06:14:13;;;;;;;20.13;13.55;;;;;;;;;;5036248;28;20040;-76
2023/03/16 06:16:40;;;;;;;19.88;14.30;;;;;;;;;;5020078;28;20119;-78
2023/03/16 06:19:06;;;;;;;21.10;13.50;;;;;;;;;;5017222;28;20544;-76
2023/03/16 06:21:32;;;;;;;27.33;17.70;;;;;;;;;;5027986;28;20051;-77
2023/03/16 06:24:04;;;;;;;18.00;13.75;;;;;;;;;;5036868;28;20024;-75
2023/03/16 06:26:29;;;;;;;22.15;13.93;;;;;;;;;;5036285;28;20446;-75
2023/03/16 06:28:55;;;;;;;19.40;13.25;;;;;;;;;;5038234;28;20021;-76
2023/03/16 06:31:21;;;;;;;20.27;13.80;;;;;;;;;;5039329;28;20087;-75
2023/03/16 06:33:46;;;;;;;23.92;14.63;;;;;;;;;;5066484;28;20409;-75
2023/03/16 06:36:12;;;;;;;24.83;15.77;;;;;;;;;;5054130;28;20036;-77
2023/03/16 06:38:42;;;;;;;19.92;14.85;;;;;;;;;;5020449;28;20044;-76
2023/03/16 06:41:14;;;;;;;19.73;15.38;;;;;;;;;;5055440;28;20518;-76
2023/03/16 06:43:41;;;;;;;17.98;14.32;;;;;;;;;;5046562;28;20033;-76
2023/03/16 06:46:07;;;;;;;24.98;14.95;;;;;;;;;;5036179;28;20029;-76
2023/03/16 06:48:33;;;;;;;20.27;14.43;;;;;;;;;;5034899;28;20041;-76
2023/03/16 06:50:58;;;;;;;23.42;16.42;;;;;;;;;;5019305;28;20029;-76
2023/03/16 06:53:26;;;;;;;21.83;15.77;;;;;;;;;;5019547;28;20052;-76
2023/03/16 06:55:53;;;;;;;21.50;14.95;;;;;;;;;;5000510;28;20570;-76
2023/03/16 06:58:20;;;;;;;25.63;15.05;;;;;;;;;;5024983;28;20033;-77
2023/03/16 07:00:45;;;;;;;19.48;14.77;;;;;;;;;;5002572;28;20032;-77
2023/03/16 07:03:36;;;;;;;20.65;14.95;;;;;;;;;;5053306;28;20040;-76
2023/03/16 07:06:11;;;;;;;23.00;15.75;;;;;;;;;;5007828;28;20036;-78
2023/03/16 07:08:36;;;;;;;25.50;15.57;;;;;;;;;;5052821;28;20563;-76
2023/03/16 07:11:02;;;;;;;23.02;16.23;;;;;;;;;;5035225;28;20033;-76
2023/03/16 07:13:28;;;;;;;;;;;;;;;;;;5035183;28;20412;-75
2023/03/16 07:15:53;;;;;;;20.17;15.05;;;;;;;;;;5035055;28;19908;-76
2023/03/16 07:18:21;;;;;;;20.65;14.95;;;;;;;;;;5034595;28;20033;-76
2023/03/16 07:20:47;;;;;;;20.75;14.98;;;;;;;;;;5034969;28;20391;-75
2023/03/16 07:23:13;;;;;;;21.55;15.00;;;;;;;;;;5034309;28;20039;-75
2023/03/16 07:25:40;;;;;;;17.70;13.25;;;;;;;;;;5034762;28;20017;-75
2023/03/16 07:28:06;;;;;;;18.88;13.77;;;;;;;;;;5035085;28;20163;-76
2023/03/16 07:30:37;;;;;;;19.27;13.15;;;;;;;;;;5034428;28;20117;-77
2023/03/16 07:33:04;;;;;;;;;;;;;;;;;;5034829;28;20067;-76
2023/03/16 07:35:29;;;;;;;20.10;13.63;;;;;;;;;;5034581;28;20272;-76
2023/03/16 07:37:57;;;;;;;20.73;13.48;;;;;;;;;;5034184;28;20275;-76
2023/03/16 07:40:26;;;;;;;18.17;13.18;;;;;;;;;;5052553;28;20075;-76
2023/03/16 07:42:56;;;;;;;18.63;12.75;;;;;;;;;;5034453;28;20408;-76
2023/03/16 07:45:27;;;;;;;18.33;12.63;;;;;;;;;;5034233;28;20496;-76
2023/03/16 07:47:53;;;;;;;17.83;11.93;;;;;;;;;;5034411;28;20033;-76
2023/03/16 07:50:48;;;;;;;17.67;12.38;;;;;;;;;;5034092;28;20033;-76
2023/03/16 07:53:14;;;;;;;18.48;13.48;;;;;;;;;;5017318;28;20701;-76
2023/03/16 07:55:43;;;;;;;19.98;12.82;;;;;;;;;;5041059;28;20508;-77
2023/03/16 07:58:09;;;;;;;18.17;12.90;;;;;;;;;;5050455;28;20052;-75
2023/03/16 08:00:38;;;;;;;20.30;12.32;;;;;;;;;;5010097;28;20057;-77
2023/03/16 08:03:04;;;;;;;18.02;12.65;;;;;;;;;;5044691;28;20035;-76
2023/03/16 08:05:31;;;;;;;17.55;12.73;;;;;;;;;;5049916;28;20098;-77
2023/03/16 08:08:00;;;;;;;17.98;12.75;;;;;;;;;;5051601;28;20060;-77
2023/03/16 08:10:26;;;;;;;18.55;13.48;;;;;;;;;;5024433;28;20095;-75
2023/03/16 08:13:03;;;;;;;19.40;13.55;;;;;;;;;;5035205;28;20045;-78
2023/03/16 08:15:32;;;;;;;17.70;12.93;;;;;;;;;;5033722;28;20037;-75
2023/03/16 08:18:04;;;;;;;17.80;13.50;;;;;;;;;;5034658;28;20090;-75
2023/03/16 08:20:30;;;;;;;19.33;14.13;;;;;;;;;;5049121;28;20033;-75
2023/03/16 08:22:55;;;;;;;19.27;14.10;;;;;;;;;;5051146;28;20460;-76
2023/03/16 08:25:25;;;;;;;18.42;14.05;;;;;;;;;;5032814;28;20032;-76
2023/03/16 08:28:03;;;;;;;20.65;14.57;;;;;;;;;;5049210;28;20048;-76
2023/03/16 08:30:29;;;;;;;20.00;13.75;;;;;;;;;;5048863;28;20484;-76
2023/03/16 08:33:20;;;;;;;21.50;13.05;;;;;;;;;;5049078;28;20029;-77
2023/03/16 08:35:46;;;;;;;19.20;12.93;;;;;;;;;;5049252;28;20044;-77
2023/03/16 08:38:13;;;;;;;18.75;13.35;;;;;;;;;;5033056;28;20033;-76
2023/03/16 08:40:40;;;;;;;18.98;14.13;;;;;;;;;;5033258;28;20086;-76
2023/03/16 08:43:07;;;;;;;18.60;12.93;;;;;;;;;;5033136;28;20025;-78
2023/03/16 08:45:33;;;;;;;19.45;13.25;;;;;;;;;;5049600;28;20060;-75
2023/03/16 08:47:59;;;;;;;19.75;13.70;;;;;;;;;;5051081;28;20078;-78
2023/03/16 08:50:24;;;;;;;19.65;13.30;;;;;;;;;;5033598;28;20033;-77
2023/03/16 08:52:50;;;;;;;18.42;11.70;;;;;;;;;;5033026;28;20404;-78
2023/03/16 08:55:15;;;;;;;19.88;12.98;;;;;;;;;;5033355;28;20203;-77
2023/03/16 08:57:43;;;;;;;20.58;13.82;;;;;;;;;;5033110;28;20033;-78
2023/03/16 09:00:13;;;;;;;18.15;12.82;;;;;;;;;;5051126;28;20041;-77
2023/03/16 09:02:41;;;;;;;15.23;11.90;;;;;;;;;;5050902;28;20043;-78
2023/03/16 09:05:07;;;;;;;19.50;11.82;;;;;;;;;;5033317;28;20033;-77
2023/03/16 09:07:35;;;;;;;16.42;12.15;;;;;;;;;;5032854;28;20079;-78
2023/03/16 09:10:00;;;;;;;19.67;12.52;;;;;;;;;;5051877;28;20044;-75
2023/03/16 09:12:26;;;;;;;17.42;12.77;;;;;;;;;;5057429;28;20024;-77
2023/03/16 09:14:53;;;;;;;17.23;12.43;;;;;;;;;;5057709;28;20068;-79
2023/03/16 09:17:19;;;;;;;19.45;12.50;;;;;;;;;;5039413;28;20037;-77
2023/03/16 09:19:45;;;;;;;17.48;11.77;;;;;;;;;;5057494;28;20039;-77
2023/03/16 09:22:11;;;;;;;21.42;12.80;;;;;;;;;;5040210;28;20116;-77
2023/03/16 09:24:36;;;;;;;17.45;12.15;;;;;;;;;;5022840;28;20087;-75
2023/03/16 09:27:02;;;;;;;16.63;11.82;;;;;;;;;;5057350;28;20099;-76
2023/03/16 09:29:27;;;;;;;16.45;12.57;;;;;;;;;;5057657;28;20037;-76
2023/03/16 09:31:52;;;;;;;16.40;11.48;;;;;;;;;;5057663;28;20379;-76
2023/03/16 09:34:18;;;;;;;19.42;13.27;;;;;;;;;;5040059;28;20037;-77
2023/03/16 09:36:44;;;;;;;15.32;10.95;;;;;;;;;;5057499;28;20514;-78
2023/03/16 09:39:10;;;;;;;15.55;10.77;;;;;;;;;;5057783;28;20828;-76
2023/03/16 09:41:46;;;;;;;21.17;13.93;;;;;;;;;;5039324;28;20452;-76
2023/03/16 09:44:11;;;;;;;24.88;14.27;;;;;;;;;;5057309;28;20184;-76
2023/03/16 09:46:40;;;;;;;17.17;11.60;;;;;;;;;;5057107;28;20021;-76
2023/03/16 09:49:08;;;;;;;17.15;11.65;;;;;;;;;;5057021;28;20053;-76
2023/03/16 09:51:52;;;;;;;15.20;11.27;;;;;;;;;;5022894;28;20399;-76
2023/03/16 09:54:38;;;;;;;17.05;10.88;;;;;;;;;;5057440;28;20051;-77
2023/03/16 09:57:03;;;;;;;16.92;11.88;;;;;;;;;;5056272;28;20428;-76
2023/03/16 09:59:29;;;;;;;19.25;12.23;;;;;;;;;;5038426;28;20030;-75
2023/03/16 10:01:59;;;;;;;21.05;13.38;;;;;;;;;;5057418;28;20173;-77
2023/03/16 10:04:46;;;;;;;21.27;13.73;;;;;;;;;;5041775;28;20035;-77
2023/03/16 10:07:12;;;;;;;23.58;14.50;;;;;;;;;;5057119;28;20029;-76
2023/03/16 10:09:37;;;;;;;24.30;14.88;;;;;;;;;;5057022;28;20085;-76
2023/03/16 10:12:03;;;;;;;19.30;14.73;;;;;;;;;;5038718;28;20047;-76
2023/03/16 10:14:47;;;;;;;23.67;15.35;;;;;;;;;;5036078;28;20044;-78
2023/03/16 10:17:17;;;;;;;22.65;15.63;;;;;;;;;;5053485;28;20069;-78
2023/03/16 10:19:45;;;;;;;21.50;14.98;;;;;;;;;;5029837;28;20550;-76
2023/03/16 10:22:16;;;;;;;21.70;15.55;;;;;;;;;;5034935;28;20063;-77
2023/03/16 10:25:02;;;;;;;21.98;14.77;;;;;;;;;;5053216;28;20128;-76
2023/03/16 10:27:28;;;;;;;21.33;14.60;;;;;;;;;;5022682;28;20047;-78
2023/03/16 10:29:54;;;;;;;18.88;13.88;;;;;;;;;;5053776;28;20543;-77
2023/03/16 10:32:19;;;;;;;18.40;13.55;;;;;;;;;;5016165;28;20129;-78
2023/03/16 10:34:52;;;;;;;19.23;12.05;;;;;;;;;;5048003;28;20060;-76
2023/03/16 10:37:17;;;;;;;19.75;13.27;;;;;;;;;;5021355;28;20493;-75
2023/03/16 10:39:43;;;;;;;18.63;13.73;;;;;;;;;;5048642;28;20036;-76
2023/03/16 10:42:15;;;;;;;18.33;12.98;;;;;;;;;;5036023;28;20483;-77
2023/03/16 10:44:41;;;;;;;19.20;12.60;;;;;;;;;;5034694;28;20064;-77
2023/03/16 10:47:07;;;;;;;17.80;12.43;;;;;;;;;;5053484;28;20049;-77
2023/03/16 10:49:45;;;;;;;18.00;12.90;;;;;;;;;;5053416;28;20448;-76
2023/03/16 10:52:20;;;;;;;19.17;12.63;;;;;;;;;;5053534;28;20033;-76
2023/03/16 10:54:53;;;;;;;20.55;12.50;;;;;;;;;;5053592;28;20040;-76
2023/03/16 10:57:19;;;;;;;19.13;12.48;;;;;;;;;;5053771;28;20033;-77
2023/03/16 10:59:51;;;;;;;18.83;12.50;;;;;;;;;;5053387;28;20479;-75
2023/03/16 11:02:19;;;;;;;18.20;12.15;;;;;;;;;;5018786;28;20469;-76
2023/03/16 11:04:45;;;;;;;18.70;11.98;;;;;;;;;;5053276;28;20032;-77
2023/03/16 11:07:13;;;;;;;;;;;;;;;;;;5053404;28;20036;-76
2023/03/16 11:09:39;;;;;;;20.75;11.30;;;;;;;;;;5040568;28;20378;-77
2023/03/16 11:12:12;;;;;;;16.25;11.90;;;;;;;;;;5035263;28;20037;-76
2023/03/16 11:14:42;;;;;;;15.07;10.55;;;;;;;;;;5035399;28;20036;-76
2023/03/16 11:17:16;;;;;;;18.85;10.57;;;;;;;;;;5035175;28;20068;-76
2023/03/16 11:19:53;;;;;;;16.02;11.43;;;;;;;;;;5035290;28;20037;-76
2023/03/16 11:22:19;;;;;;;17.48;12.43;;;;;;;;;;5034955;28;20044;-77
2023/03/16 11:24:56;;;;;;;16.17;11.82;;;;;;;;;;5035166;28;20505;-76
2023/03/16 11:27:22;;;;;;;18.52;10.68;;;;;;;;;;5034968;28;20119;-77
2023/03/16 11:30:06;;;;;;;14.10;9.93;;;;;;;;;;5052857;28;20021;-77
2023/03/16 11:32:33;;;;;;;17.10;10.02;;;;;;;;;;5041834;28;20534;-76
2023/03/16 11:34:59;;;;;;;13.13;9.43;;;;;;;;;;5034138;28;20032;-77
2023/03/16 11:37:43;;;;;;;14.93;9.52;;;;;;;;;;5018377;28;20037;-75
2023/03/16 11:40:15;;;;;;;13.38;9.98;;;;;;;;;;5052403;28;20060;-76
2023/03/16 11:42:45;;;;;;;13.63;10.07;;;;;;;;;;5034380;28;20435;-78
2023/03/16 11:45:10;;;;;;;17.73;10.82;;;;;;;;;;5034483;28;20056;-77
2023/03/16 11:47:54;;;;;;;16.85;11.68;;;;;;;;;;5052136;28;20067;-76
2023/03/16 11:50:22;;;;;;;15.60;9.93;;;;;;;;;;5041496;28;20033;-76
2023/03/16 11:52:53;;;;;;;15.50;10.38;;;;;;;;;;5052282;28;20480;-78
2023/03/16 11:55:28;;;;;;;14.93;10.70;;;;;;;;;;5059625;28;20944;-77
2023/03/16 11:58:00;;;;;;;13.70;10.15;;;;;;;;;;5070525;28;20115;-77
2023/03/16 12:00:26;;;;;;;15.00;10.63;;;;;;;;;;5071606;28;20043;-76
2023/03/16 12:02:55;;;;;;;17.48;10.30;;;;;;;;;;5047850;28;20036;-76
2023/03/16 12:05:31;;;;;;;18.23;10.18;;;;;;;;;;5045742;28;20079;-77
2023/03/16 12:08:03;;;;;;;16.42;10.07;;;;;;;;;;5053725;28;20032;-76
2023/03/16 12:10:37;;;;;;;16.25;9.57;;;;;;;;;;5040210;28;20043;-77
2023/03/16 12:13:09;;;;;;;16.38;10.25;;;;;;;;;;5071846;28;20051;-77
2023/03/16 12:15:43;;;;;;;15.13;11.00;;;;;;;;;;5066871;28;20094;-77
2023/03/16 12:18:12;;;;;;;20.67;10.77;;;;;;;;;;5043755;28;20036;-76
2023/03/16 12:20:44;;;;;;;13.52;8.75;;;;;;;;;;5055515;28;20480;-76
2023/03/16 12:23:13;;;;;;;14.38;9.38;;;;;;;;;;5034222;28;20060;-76
2023/03/16 12:25:38;;;;;;;21.77;11.40;;;;;;;;;;5034508;28;20595;-76
2023/03/16 12:28:06;;;;;;;17.08;10.90;;;;;;;;;;5052164;28;20071;-75
2023/03/16 12:30:34;;;;;;;16.13;9.98;;;;;;;;;;5034154;28;20112;-76
2023/03/16 12:32:59;;;;;;;14.32;10.18;;;;;;;;;;5028988;28;20043;-76
2023/03/16 12:35:28;;;;;;;18.52;10.52;;;;;;;;;;5053085;28;20096;-75
2023/03/16 12:38:04;;;;;;;15.77;10.13;;;;;;;;;;5045993;28;20047;-77
2023/03/16 12:40:45;;;;;;;17.40;10.35;;;;;;;;;;5038719;28;20028;-78
2023/03/16 12:43:23;;;;;;;18.38;12.23;;;;;;;;;;5017495;28;20140;-77
2023/03/16 12:45:51;;;;;;;15.52;10.52;;;;;;;;;;5050741;28;20021;-77
2023/03/16 12:48:27;;;;;;;18.88;10.85;;;;;;;;;;5037678;28;20032;-78
2023/03/16 12:50:57;;;;;;;24.17;12.57;;;;;;;;;;5036395;28;20457;-77
2023/03/16 12:53:41;;;;;;;16.15;9.75;;;;;;;;;;5028565;28;20437;-77
2023/03/16 12:56:08;;;;;;;14.77;9.85;;;;;;;;;;5030011;28;20052;-76
2023/03/16 12:58:34;;;;;;;14.55;9.93;;;;;;;;;;5036297;28;20550;-77
2023/03/16 13:01:00;;;;;;;18.58;10.65;;;;;;;;;;5052721;28;20176;-77
2023/03/16 13:03:26;;;;;;;19.92;11.48;;;;;;;;;;5053099;28;20120;-76
2023/03/16 13:05:53;;;;;;;17.95;11.23;;;;;;;;;;5052897;28;20492;-77
2023/03/16 13:08:19;;;;;;;16.65;9.52;;;;;;;;;;5052818;28;20395;-76
2023/03/16 13:11:04;;;;;;;19.30;12.02;;;;;;;;;;5052686;28;20033;-77
2023/03/16 13:13:29;;;;;;;19.05;12.23;;;;;;;;;;5052659;28;20062;-77
2023/03/16 13:16:08;;;;;;;17.15;12.63;;;;;;;;;;5033210;28;20029;-76
2023/03/16 13:18:35;;;;;;;22.05;14.48;;;;;;;;;;5032141;28;20564;-75
2023/03/16 13:21:12;;;;;;;20.00;14.02;;;;;;;;;;5052898;28;20028;-76
2023/03/16 13:23:37;;;;;;;;;;;;;;;;;;5071150;28;20070;-75
2023/03/16 13:26:14;;;;;;;28.60;18.33;;;;;;;;;;5052514;28;19909;-75
2023/03/16 13:28:40;;;;;;;24.33;15.73;;;;;;;;;;5053148;28;20112;-77
2023/03/16 13:31:18;;;;;;;23.65;15.63;;;;;;;;;;5052733;28;20112;-74
2023/03/16 13:33:44;;;;;;;24.38;15.80;;;;;;;;;;5052711;28;20173;-76
2023/03/16 13:36:09;;;;;;;26.13;16.25;;;;;;;;;;5033247;28;20119;-76
2023/03/16 13:38:35;;;;;;;29.23;17.77;;;;;;;;;;5057971;28;20455;-76
2023/03/16 13:41:04;;;;;;;25.90;18.75;;;;;;;;;;5052912;28;20032;-75
2023/03/16 13:43:31;;;;;;;32.75;19.05;;;;;;;;;;5033152;28;20403;-76
2023/03/16 13:45:57;;;;;;;34.47;20.10;;;;;;;;;;5053079;28;20031;-77
2023/03/16 13:48:22;;;;;;;29.00;18.75;;;;;;;;;;5052937;28;20028;-77
2023/03/16 13:50:52;;;;;;;27.88;18.63;;;;;;;;;;5053014;28;20763;-76
2023/03/16 13:53:20;;;;;;;27.60;16.45;;;;;;;;;;5052805;28;20097;-76
2023/03/16 13:55:45;;;;;;;27.13;16.45;;;;;;;;;;5035919;28;20090;-77
2023/03/16 13:58:38;;;;;;;23.70;16.30;;;;;;;;;;5039143;28;20059;-77
2023/03/16 14:01:14;;;;;;;25.55;16.58;;;;;;;;;;5052426;28;20036;-76
2023/03/16 14:03:41;;;;;;;29.53;20.37;;;;;;;;;;5056331;28;20036;-76
2023/03/16 14:06:06;;;;;;;25.48;17.40;;;;;;;;;;5074244;28;20024;-76
2023/03/16 14:08:32;;;;;;;25.42;17.88;;;;;;;;;;5056333;28;20045;-78
2023/03/16 14:10:58;;;;;;;26.38;18.70;;;;;;;;;;5073882;28;20082;-79
2023/03/16 14:13:26;;;;;;;26.63;17.90;;;;;;;;;;5056348;28;20032;-77
2023/03/16 14:15:56;;;;;;;25.77;17.27;;;;;;;;;;5074000;28;20037;-78
2023/03/16 14:18:23;;;;;;;27.83;18.67;;;;;;;;;;5056321;28;20040;-77
2023/03/16 14:20:52;;;;;;;27.08;16.92;;;;;;;;;;5039357;28;20399;-75
2023/03/16 14:23:22;;;;;;;24.17;15.32;;;;;;;;;;5056058;28;20059;-76
2023/03/16 14:25:48;;;;;;;22.38;14.90;;;;;;;;;;5073773;28;20506;-76
2023/03/16 14:28:13;;;;;;;22.08;14.80;;;;;;;;;;5073832;28;20033;-76
2023/03/16 14:30:48;;;;;;;23.13;15.20;;;;;;;;;;5056106;28;20028;-76
2023/03/16 14:33:41;;;;;;;17.88;11.98;;;;;;;;;;5055102;28;20122;-77